createdAt,value
2022-09-28T00:04:22.976Z,91
2022-09-28T00:09:23.957Z,91
2022-09-28T00:14:09.929Z,91
2022-09-28T00:19:09.846Z,92
2022-09-28T00:24:10.043Z,92
2022-09-28T00:29:09.451Z,92
2022-09-28T00:34:07.531Z,92
2022-09-28T00:39:07.304Z,92
2022-09-28T00:44:07.104Z,93
2022-09-28T00:49:06.697Z,93
2022-09-28T00:54:05.807Z,94
2022-09-28T00:58:51.536Z,94
2022-09-28T01:03:51.973Z,94
2022-09-28T01:08:51.360Z,95
2022-09-28T01:13:52.257Z,95
2022-09-28T01:18:49.056Z,96
2022-09-28T01:23:48.905Z,96
2022-09-28T01:28:49.700Z,96
2022-09-28T01:33:48.251Z,96
2022-09-28T01:38:47.388Z,97
2022-09-28T01:43:47.828Z,97
2022-09-28T01:48:46.603Z,97
2022-09-28T01:53:46.232Z,97
2022-09-28T01:58:45.677Z,97
2022-09-28T02:03:45.542Z,97
2022-09-28T02:08:44.603Z,98
2022-09-28T02:13:45.265Z,97
2022-09-28T02:18:42.657Z,98
2022-09-28T02:23:42.655Z,98
2022-09-28T02:28:41.596Z,98
2022-09-28T02:33:41.666Z,98
2022-09-28T02:38:39.571Z,98
2022-09-28T02:43:39.383Z,98
2022-09-28T02:48:49.282Z,98
2022-09-28T02:53:38.515Z,98
2022-09-28T02:58:38.183Z,98
2022-09-28T02:59:58.505Z,98
2022-09-28T03:04:58.884Z,98
2022-09-28T03:09:57.989Z,98
2022-09-28T03:14:56.517Z,98
2022-09-28T03:19:55.790Z,98
2022-09-28T03:24:55.986Z,98
2022-09-28T03:29:55.221Z,98
2022-09-28T03:34:54.654Z,99
2022-09-28T03:39:53.605Z,99
2022-09-28T03:44:54.005Z,99
2022-09-28T03:49:52.937Z,99
2022-09-28T03:54:53.681Z,99
2022-09-28T03:58:56.426Z,99
2022-09-28T04:03:56.048Z,99
2022-09-28T04:08:55.051Z,99
2022-09-28T04:13:54.767Z,99
2022-09-28T04:18:53.021Z,99
2022-09-28T04:23:52.711Z,99
2022-09-28T04:28:52.547Z,99
2022-09-28T04:33:52.405Z,99
2022-09-28T04:38:54.241Z,99
2022-09-28T04:43:49.482Z,100
2022-09-28T04:48:49.918Z,100
2022-09-28T04:53:49.230Z,100
2022-09-28T04:58:53.300Z,100
2022-09-28T05:03:47.067Z,100
2022-09-28T05:08:47.162Z,100
2022-09-28T05:13:46.892Z,100
2022-09-28T05:18:46.089Z,100
2022-09-28T05:23:45.515Z,100
2022-09-28T05:28:45.551Z,100
2022-09-28T05:33:44.371Z,100
2022-09-28T05:38:45.471Z,100
2022-09-28T05:43:42.409Z,100
2022-09-28T05:48:42.231Z,100
2022-09-28T05:53:41.663Z,100
2022-09-28T05:58:41.315Z,100
2022-09-28T06:03:39.473Z,100
2022-09-28T06:08:39.368Z,100
2022-09-28T06:13:39.270Z,100
2022-09-28T06:18:40.576Z,100
2022-09-28T06:23:37.622Z,100
2022-09-28T06:28:37.602Z,100
2022-09-28T06:33:36.719Z,100
2022-09-28T06:38:36.386Z,100
2022-09-28T06:43:35.195Z,100
2022-09-28T06:48:34.902Z,100
2022-09-28T06:53:34.812Z,100
2022-09-28T06:58:34.113Z,100
2022-09-28T06:59:55.499Z,100
2022-09-28T07:04:55.062Z,100
2022-09-28T07:09:56.060Z,100
2022-09-28T07:14:55.344Z,100
2022-09-28T07:19:55.148Z,99
2022-09-28T07:24:52.332Z,99
2022-09-28T07:29:52.406Z,99
2022-09-28T07:34:58.036Z,99
2022-09-28T07:39:51.809Z,99
2022-09-28T07:44:50.298Z,98
2022-09-28T07:49:49.733Z,96
2022-09-28T07:54:49.621Z,95
2022-09-28T07:59:27.057Z,93
2022-09-28T08:04:24.566Z,91
2022-09-28T08:09:23.649Z,90
2022-09-28T08:14:25.013Z,89
2022-09-28T08:19:21.838Z,89
2022-09-28T08:24:21.824Z,89
2022-09-28T08:29:21.600Z,90
2022-09-28T08:34:08.849Z,90
2022-09-28T08:39:08.664Z,90
2022-09-28T08:44:08.622Z,89
2022-09-28T08:49:25.880Z,89
2022-09-28T08:54:12.133Z,87
2022-09-28T08:58:53.768Z,85
2022-09-28T09:03:53.673Z,85
2022-09-28T09:08:53.061Z,84
2022-09-28T09:13:54.043Z,85
2022-09-28T09:18:51.271Z,84
2022-09-28T09:23:50.854Z,83
2022-09-28T09:28:49.830Z,84
2022-09-28T09:33:49.935Z,83
2022-09-28T09:38:48.833Z,82
2022-09-28T09:43:48.841Z,82
2022-09-28T09:48:48.107Z,81
2022-09-28T09:53:48.688Z,81
2022-09-28T09:58:46.096Z,81
2022-09-28T10:03:46.021Z,81
2022-09-28T10:08:45.000Z,80
2022-09-28T10:13:44.902Z,80
2022-09-28T10:18:43.127Z,81
2022-09-28T10:23:43.097Z,82
2022-09-28T10:28:43.082Z,80
2022-09-28T10:33:42.800Z,81
2022-09-28T10:38:42.146Z,80
2022-09-28T10:43:43.766Z,78
2022-09-28T10:48:42.049Z,76
2022-09-28T10:53:41.418Z,77
2022-09-28T10:58:41.957Z,78
2022-09-28T11:03:38.606Z,77
2022-09-28T11:08:38.505Z,78
2022-09-28T11:13:38.186Z,77
2022-09-28T11:18:37.684Z,73
2022-09-28T11:23:37.405Z,74
2022-09-28T11:28:37.102Z,75
2022-09-28T11:33:36.121Z,76
2022-09-28T11:38:37.037Z,76
2022-09-28T11:43:34.044Z,75
2022-09-28T11:48:33.553Z,75
2022-09-28T11:53:32.610Z,74
2022-09-28T11:58:32.558Z,75
2022-09-28T11:59:53.982Z,75
2022-09-28T12:04:53.949Z,74
2022-09-28T12:09:54.109Z,73
2022-09-28T12:14:52.890Z,72
2022-09-28T12:19:52.571Z,72
2022-09-28T12:24:52.252Z,68
2022-09-28T12:29:52.573Z,66
2022-09-28T12:34:51.806Z,64
2022-09-28T12:39:58.940Z,66
2022-09-28T12:44:49.903Z,67
2022-09-28T12:50:39.496Z,67
2022-09-28T12:54:48.377Z,68
2022-09-28T12:59:23.480Z,69
2022-09-28T13:04:24.080Z,63
2022-09-28T13:09:23.157Z,66
2022-09-28T13:14:24.545Z,66
2022-09-28T13:19:10.926Z,66
2022-09-28T13:24:32.530Z,63
2022-09-28T13:29:21.899Z,61
2022-09-28T13:34:09.469Z,56
2022-09-28T13:39:09.647Z,58
2022-09-28T13:44:09.888Z,57
2022-09-28T13:49:09.395Z,58
2022-09-28T13:54:08.372Z,62
2022-09-28T13:58:52.351Z,61
2022-09-28T14:03:52.268Z,61
2022-09-28T14:08:51.099Z,59
2022-09-28T14:13:52.011Z,61
2022-09-28T14:18:48.657Z,62
2022-09-28T14:23:48.468Z,62
2022-09-28T14:28:48.372Z,63
2022-09-28T14:33:47.577Z,63
2022-09-28T14:39:41.177Z,64
2022-09-28T14:43:46.773Z,63
2022-09-28T14:48:48.234Z,63
2022-09-28T14:53:45.391Z,63
2022-09-28T14:58:45.555Z,63
2022-09-28T15:03:44.447Z,63
2022-09-28T15:08:43.572Z,63
2022-09-28T15:13:43.069Z,66
2022-09-28T15:18:42.933Z,67
2022-09-28T15:23:42.171Z,70
2022-09-28T15:28:43.117Z,74
2022-09-28T15:33:39.743Z,74
2022-09-28T15:38:39.479Z,75
2022-09-28T15:43:38.470Z,78
2022-09-28T15:48:38.461Z,79
2022-09-28T15:53:36.571Z,80
2022-09-28T15:58:35.958Z,82
2022-09-28T16:03:36.091Z,84
2022-09-28T16:08:37.610Z,81
2022-09-28T16:13:34.754Z,79
2022-09-28T16:18:34.815Z,78
2022-09-28T16:23:34.508Z,78
2022-09-28T16:28:35.075Z,78
2022-09-28T16:33:32.376Z,78
2022-09-28T16:38:32.244Z,78
2022-09-28T16:43:32.282Z,78
2022-09-28T16:48:31.350Z,78
2022-09-28T16:53:30.451Z,79
2022-09-28T16:58:30.249Z,79
2022-09-28T16:59:51.567Z,79
2022-09-28T17:04:50.308Z,80
2022-09-28T17:09:50.981Z,82
2022-09-28T17:14:47.761Z,80
2022-09-28T17:19:47.491Z,82
2022-09-28T17:24:46.758Z,85
2022-09-28T17:29:46.085Z,86
2022-09-28T17:35:00.982Z,88
2022-09-28T17:39:44.065Z,90
2022-09-28T17:44:44.021Z,92
2022-09-28T17:49:42.145Z,93
2022-09-28T17:54:42.131Z,93
2022-09-28T17:59:22.010Z,93
2022-09-28T18:04:52.391Z,93
2022-09-28T18:09:09.010Z,92
2022-09-28T18:14:11.849Z,92
2022-09-28T18:19:08.828Z,92
2022-09-28T18:24:09.177Z,92
2022-09-28T18:29:06.650Z,92
2022-09-28T18:34:06.283Z,91
2022-09-28T18:39:06.679Z,91
2022-09-28T18:44:05.735Z,91
2022-09-28T18:49:04.627Z,91
2022-09-28T18:54:04.474Z,91
2022-09-28T18:58:49.965Z,91
2022-09-28T19:03:49.596Z,91
2022-09-28T19:08:50.171Z,92
2022-09-28T19:13:47.386Z,92
2022-09-28T19:18:47.297Z,92
2022-09-28T19:23:50.206Z,92
2022-09-28T19:28:45.809Z,92
2022-09-28T19:33:45.006Z,93
2022-09-28T19:38:45.011Z,93
2022-09-28T19:43:43.933Z,93
2022-09-28T19:48:44.992Z,93
2022-09-28T19:53:42.167Z,93
2022-09-28T19:58:42.291Z,93
2022-09-28T20:03:42.257Z,93
2022-09-28T20:08:44.813Z,93
2022-09-28T20:13:39.975Z,93
2022-09-28T20:18:39.917Z,93
2022-09-28T20:23:39.644Z,93
2022-09-28T20:28:39.240Z,93
2022-09-28T20:33:38.058Z,93
2022-09-28T20:38:37.995Z,93
2022-09-28T20:43:37.490Z,93
2022-09-28T20:48:37.169Z,93
2022-09-28T20:53:37.983Z,93
2022-09-28T20:58:34.700Z,93
2022-09-28T20:59:56.186Z,93
2022-09-28T21:04:55.716Z,93
2022-09-28T21:09:54.382Z,92
2022-09-28T21:14:53.914Z,92
2022-09-28T21:19:53.444Z,92
2022-09-28T21:24:53.316Z,92
2022-09-28T21:29:53.768Z,92
2022-09-28T21:34:50.888Z,92
2022-09-28T21:39:50.680Z,92
2022-09-28T21:44:50.760Z,92
2022-09-28T21:49:50.536Z,93
2022-09-28T21:54:48.676Z,93
2022-09-28T21:58:54.535Z,93
2022-09-28T22:03:54.788Z,94
2022-09-28T22:08:54.320Z,94
2022-09-28T22:13:53.724Z,94
2022-09-28T22:18:52.662Z,94
2022-09-28T22:23:52.817Z,95
2022-09-28T22:28:52.333Z,95
2022-09-28T22:33:50.000Z,95
2022-09-28T22:38:49.500Z,96
2022-09-28T22:43:49.230Z,96
2022-09-28T22:48:48.601Z,96
2022-09-28T22:53:47.624Z,96
2022-09-28T22:58:47.005Z,96
2022-09-28T23:03:46.882Z,96
2022-09-28T23:08:45.864Z,97
2022-09-28T23:13:46.775Z,97
2022-09-28T23:18:43.974Z,97
2022-09-28T23:23:43.562Z,97
2022-09-28T23:28:43.889Z,97
2022-09-28T23:33:43.307Z,97
2022-09-28T23:38:41.775Z,97
2022-09-28T23:43:41.294Z,98
2022-09-28T23:48:41.375Z,98
2022-09-28T23:53:40.733Z,98
2022-09-28T23:58:39.584Z,98
